Gratiot, Wisconsin
Current Conditions -  °F | °C
As of 7:15 AM on Thursday 27 Nov 2014 (Local Time) from KEFT Reporting Station
Overcast Overcast  
Wind Chill: -12°   Ceiling: 1500
Heat Index: -5°   Visibility: 10mi
Dew Point: -7°   Wind: 13mph
Humidity: 86%   Direction: 300°WNW
Pressure: 30.3"   Gusts: NA
Location:  42.58°N, 90.02°W
Report Text: KEFT 271315Z AUTO 30011KT 10SM OVC015 M05/M07 A3030 RMK AO2
Loading
Personal Weather Stations






























Interactive Weather Map New forecast layout! Learn more

10-Day Weather Forecast

Advertisements
Track Severe Weather on mobile